ADDS METAR Data INFO
IDs: Format: Raw Decoded Include TAF

Data at: 2113 UTC 22 Oct 2017

KSFY 222055Z AUTO 34003KT 10SM -RA SCT075 OVC100 12/09 A3006 RMK AO2 T01150094
KSFY 222035Z AUTO 30004KT 10SM -RA BKN075 OVC100 12/09 A3005 RMK AO2 T01150092
KSFY 222015Z AUTO 33005KT 10SM RA SCT019 SCT060 OVC075 12/09 A3004 RMK AO2 T01150089
KSFY 221955Z AUTO 32007KT 10SM -RA SCT019 OVC060 12/09 A3004 RMK AO2 T01180091
KSFY 221935Z AUTO 31006KT 10SM OVC060 12/09 A3004 RMK AO2 T01200087
KSFY 221915Z AUTO 31005KT 10SM OVC060 12/09 A3003 RMK AO2 T01200087
KSFY 221855Z AUTO 02005KT 10SM OVC050 12/09 A3001 RMK AO2 T01180086
KSFY 221835Z AUTO 36003KT 10SM SCT050 OVC060 12/09 A3001 RMK AO2 T01170088
KSFY 221815Z AUTO 34005KT 10SM OVC050 12/09 A3002 RMK AO2 T01160086
KSFY 221755Z AUTO 02009KT 10SM OVC048 11/09 A3001 RMK AO2 T01140085 10137 20112
KSFY 221735Z AUTO 34007KT 5SM DZ OVC044 11/09 A3003 RMK AO2 T01140088
KSFY 221715Z AUTO 33009G17KT 10SM RA OVC042 12/09 A3003 RMK AO2 T01180090
KSFY 221655Z AUTO 33012KT 10SM OVC040 12/09 A3002 RMK AO2 T01190089
KSFY 221635Z AUTO 33011G19KT 10SM -DZ OVC038 12/10 A3000 RMK AO2 T01190098
KSFY 221615Z AUTO 32014G17KT 10SM OVC034 12/10 A3000 RMK AO2 T01200098
KSFY 221555Z AUTO 32009KT 10SM -RA OVC032 12/11 A2999 RMK AO2 T01240107
KSFY 221535Z AUTO 31006KT 10SM -DZ SCT011 OVC030 12/11 A2999 RMK AO2 T01220107
KSFY 221515Z AUTO 32006KT 10SM SCT009 BKN013 OVC026 13/11 A2996 RMK AO2 T01250113
KSFY 221455Z AUTO 33007KT 10SM SCT013 OVC024 12/11 A2996 RMK AO2 T01240110
KSFY 221435Z AUTO 33008KT 300V360 10SM -RA SCT011 OVC024 13/11 A2994 RMK AO2 T01250112
KSFY 221415Z AUTO 34008KT 7SM -RA BKN024 OVC031 13/11 A2995 RMK AO2 T01250112
KSFY 221355Z AUTO 32009KT 10SM -RA OVC022 13/11 A2995 RMK AO2 T01260112
KSFY 221335Z AUTO 34006KT 10SM SCT011 OVC022 13/12 A2994 RMK AO2 LTG DSNT E AND SE T01270115
KSFY 221315Z AUTO 32007KT 10SM BKN009 OVC024 13/12 A2993 RMK AO2 LTG DSNT SE T01270116
KSFY 221255Z AUTO 34009KT 10SM BKN009 BKN013 OVC024 13/12 A2991 RMK AO2 T01300120
KSFY 221235Z AUTO 33006KT 7SM -DZ OVC007 13/13 A2991 RMK AO2 LTG DSNT E T01300125
KSFY 221215Z AUTO 33008KT 3SM +DZ OVC005 14/13 A2991 RMK AO2 LTG DSNT E AND SE T01350129
KSFY 221155Z AUTO 31011G15KT 3SM RA BKN005 OVC010 14/13 A2991 RMK AO2 LTG DSNT E AND SE 60001 70001 T01380132 10206 20138
KSFY 221135Z AUTO 31012KT 4SM +DZ OVC005 15/14 A2989 RMK AO2 LTG DSNT E AND SE T01520144
KSFY 221115Z AUTO 00000KT 10SM -RA BKN007 BKN012 OVC019 16/16 A2989 RMK AO2 LTG DSNT E AND SE T01640160
KSFY 221055Z AUTO 00000KT 4SM -RA SCT011 OVC021 17/16 A2989 RMK AO2 LTG DSNT E AND SE P0001 T01650159
KSFY 221035Z AUTO 00000KT 10SM VCTSRA SCT011 OVC021 17/16 A2987 RMK AO2 LTG DSNT SE AND S T01650158
KSFY 221015Z AUTO 29004KT 10SM -VCTSRA OVC025 17/16 A2987 RMK AO2 LTG DSNT SE AND S T01650158
KSFY 220955Z AUTO 00000KT 7SM RA BKN024 OVC031 17/16 A2986 RMK AO2 LTG DSNT S T01650159
KSFY 220935Z AUTO 34003KT 10SM -RA SCT024 OVC031 17/16 A2987 RMK AO2 LTG DSNT E AND S T01660158
KSFY 220915Z AUTO 00000KT 10SM SCT025 OVC031 17/16 A2987 RMK AO2 LTG DSNT E AND S T01680157
KSFY 220855Z AUTO 29003KT 4SM VCTSRA OVC031 17/15 A2987 RMK AO2 LTG DSNT SE AND S T01740152
KSFY 220835Z AUTO 27003KT 10SM -VCTSRA OVC031 18/15 A2987 RMK AO2 LTG DSNT SE AND S T01780149
KSFY 220815Z AUTO 29003KT 10SM OVC033 18/16 A2987 RMK AO2 LTG DSNT SE AND S T01790159
KSFY 220755Z AUTO 00000KT 10SM -RA OVC033 18/16 A2987 RMK AO2 LTG DSNT S T01820160
KSFY 220735Z AUTO 18003KT 10SM -RA OVC035 18/16 A2988 RMK AO2 T01840158
KSFY 220715Z AUTO 15005KT 10SM RA OVC035 19/15 A2988 RMK AO2 T01910153
KSFY 220655Z AUTO 21005KT 10SM RA OVC035 20/15 A2989 RMK AO2 T01970148
KSFY 220635Z AUTO 22008G17KT 10SM OVC035 20/15 A2990 RMK AO2 T02040145
KSFY 220615Z AUTO 17012G16KT 10SM -RA BKN039 OVC045 20/15 A2987 RMK AO2 T02030145
KSFY 220555Z AUTO 17012G19KT 10SM BKN042 21/14 A2988 RMK AO2 LTG DSNT NW T02070142 10229 20205 402640141
KSFY 220535Z AUTO 17013G18KT 10SM SCT040 SCT110 21/14 A2988 RMK AO2 LTG DSNT NW T02050142
KSFY 220515Z AUTO 17013G18KT 10SM CLR 21/14 A2988 RMK AO2 LTG DSNT NW T02070142
KSFY 220455Z AUTO 17014KT 10SM BKN042 SCT050 BKN080 21/14 A2989 RMK AO2 LTG DSNT NW T02110143
KSFY 220435Z AUTO 17013G19KT 10SM SCT042 BKN048 OVC080 22/15 A2990 RMK AO2 LTG DSNT NW T02150145
KSFY 220415Z AUTO 18014G18KT 10SM BKN047 BKN055 OVC080 22/15 A2990 RMK AO2 LTG DSNT NW T02170146
KSFY 220355Z AUTO 18013G18KT 10SM SCT049 SCT055 BKN080 22/15 A2991 RMK AO2 LTG DSNT NW T02150150
KSFY 220335Z AUTO 17012G16KT 10SM SCT049 21/15 A2990 RMK AO2 LTG DSNT NW T02120150
KSFY 220315Z AUTO 17014KT 10SM CLR 21/15 A2990 RMK AO2 T02090150
KSFY 220255Z AUTO 17014G17KT 10SM CLR 21/15 A2989 RMK AO2 LTG DSNT NW T02100152
KSFY 220235Z AUTO 16010G16KT 10SM CLR 21/16 A2989 RMK AO2 LTG DSNT NW T02110155
KSFY 220215Z AUTO 17013KT 10SM CLR 21/16 A2988 RMK AO2 LTG DSNT NW T02140156
KSFY 220155Z AUTO 16013KT 10SM CLR 22/16 A2988 RMK AO2 LTG DSNT W AND NW T02160157
KSFY 220135Z AUTO 16012KT 10SM CLR 22/16 A2988 RMK AO2 LTG DSNT NW T02150158
KSFY 220115Z AUTO 16013G17KT 10SM CLR 22/16 A2989 RMK AO2 LTG DSNT W AND NW T02150158
KSFY 220055Z AUTO 16013KT 10SM CLR 22/16 A2990 RMK AO2 LTG DSNT W AND NW T02150157
KSFY 220035Z AUTO 17014G18KT 10SM CLR 22/16 A2990 RMK AO2 LTG DSNT W T02180155
KSFY 220015Z AUTO 16013KT 10SM CLR 22/16 A2991 RMK AO2 LTG DSNT W T02210155
KSFY 212355Z AUTO 17014KT 10SM BKN050 BKN080 23/16 A2990 RMK AO2 LTG DSNT W T02300155 10264 20230
KSFY 212335Z AUTO 16010KT 10SM BKN050 BKN075 23/16 A2989 RMK AO2 LTG DSNT W T02340156
KSFY 212315Z AUTO 17010G15KT 10SM SCT050 SCT075 23/16 A2989 RMK AO2 T02340155
KSFY 212255Z AUTO 16012KT 10SM SCT075 24/16 A2989 RMK AO2 T02390155
KSFY 212235Z AUTO 16014G18KT 10SM SCT050 BKN065 24/15 A2988 RMK AO2 T02430152
KSFY 212215Z AUTO 16012KT 10SM SCT050 OVC065 25/16 A2989 RMK AO2 T02500155
KSFY 212155Z AUTO 17014KT 10SM BKN050 BKN060 25/16 A2989 RMK AO2 T02510155
KSFY 212135Z AUTO 17012KT 10SM SCT050 25/15 A2989 RMK AO2 T02500153
KSFY 212115Z AUTO 17016KT 10SM CLR 26/15 A2988 RMK AO2 T02600152
KSFY 212055Z AUTO 17017G22KT 10SM CLR 26/15 A2988 RMK AO2 T02610150
KSFY 212035Z AUTO 17013G21KT 10SM CLR 26/15 A2988 RMK AO2 T02600150
KSFY 212015Z AUTO 17018G23KT 10SM CLR 26/15 A2989 RMK AO2 T02570147
KSFY 211955Z AUTO 17015G20KT 10SM CLR 26/15 A2989 RMK AO2 T02590146
KSFY 211935Z AUTO 17013G24KT 10SM CLR 26/14 A2989 RMK AO2 T02560144
KSFY 211915Z AUTO 15018G24KT 10SM CLR 26/14 A2989 RMK AO2 T02560141
KSFY 211855Z AUTO 17019KT 10SM CLR 26/15 A2989 RMK AO2 T02640148
KSFY 211835Z AUTO 16017G23KT 10SM CLR 26/14 A2990 RMK AO2 T02580142
KSFY 211815Z AUTO 18018G22KT 10SM CLR 26/14 A2990 RMK AO2 T02560141
KSFY 211755Z AUTO 19015G22KT 10SM CLR 25/14 A2991 RMK AO2 T02520137 10252 20152
KSFY 211735Z AUTO 19013G20KT 10SM CLR 25/14 A2992 RMK AO2 T02480136
KSFY 211715Z AUTO 18017G20KT 10SM CLR 25/14 A2993 RMK AO2 T02450137
KSFY 211655Z AUTO 19017G21KT 10SM CLR 24/14 A2994 RMK AO2 T02350135
KSFY 211635Z AUTO 18016G21KT 10SM CLR 23/13 A2994 RMK AO2 T02280132
KSFY 211615Z AUTO 18015G21KT 10SM CLR 22/13 A2995 RMK AO2 LTG DSNT N T02200129
KSFY 211555Z AUTO 18012G20KT 10SM CLR 21/13 A2996 RMK AO2 T02100129
KSFY 211535Z AUTO 17015KT 10SM CLR 20/12 A2997 RMK AO2 T01990123
KSFY 211515Z AUTO 17014G22KT 10SM CLR 19/12 A2998 RMK AO2 T01910120
KSFY 211455Z AUTO 17012G18KT 10SM CLR 19/12 A2998 RMK AO2 T01870120
KSFY 211435Z AUTO 17012G16KT 10SM CLR 18/12 A2998 RMK AO2 T01780117
KSFY 211415Z AUTO 17013G17KT 10SM CLR 18/12 A2998 RMK AO2 T01760116
KSFY 211355Z AUTO 16010G14KT 10SM CLR 17/12 A2998 RMK AO2 T01670117
KSFY 211335Z AUTO 17008KT 10SM CLR 16/12 A2997 RMK AO2 T01600115
KSFY 211315Z AUTO 15007KT 10SM CLR 16/11 A2996 RMK AO2 LTG DSNT N AND NW T01560112
KSFY 211255Z AUTO 16007KT 10SM CLR 15/11 A2996 RMK AO2 T01530110
KSFY 211235Z AUTO 16006KT 10SM SCT090 15/11 A2996 RMK AO2 T01530105
KSFY 211215Z AUTO 17009KT 10SM BKN090 16/11 A2996 RMK AO2 T01600105
KSFY 211155Z AUTO 16010KT 10SM BKN080 16/10 A2996 RMK AO2 T01600104 10174 20141
KSFY 211135Z AUTO 16008KT 10SM SCT080 SCT110 16/10 A2996 RMK AO2 T01550103
KSFY 211115Z AUTO 16007KT 10SM SCT080 SCT100 15/10 A2996 RMK AO2 LTG DSNT SE T01530102
KSFY 211055Z AUTO 17007KT 10SM SCT080 16/10 A2996 RMK AO2 LTG DSNT SE T01550102
KSFY 211035Z AUTO 17009KT 10SM SCT095 16/10 A2996 RMK AO2 LTG DSNT S T01570101
KSFY 211015Z AUTO 16008KT 10SM SCT085 BKN110 16/10 A2995 RMK AO2 T01610103
KSFY 210955Z AUTO 16007KT 10SM SCT085 SCT110 16/11 A2996 RMK AO2 T01570105
KSFY 210935Z AUTO 16007KT 10SM CLR 16/11 A2996 RMK AO2 T01550105
KSFY 210915Z AUTO 16008KT 10SM SCT120 15/10 A2996 RMK AO2 T01450103